createdAt,value
2022-09-05T00:00:57.000Z,287.02
2022-09-05T00:03:03.000Z,286.96
2022-09-05T00:05:55.000Z,286.9
2022-09-05T00:07:27.000Z,286.9
2022-09-05T00:10:02.000Z,286.9
2022-09-05T00:11:30.000Z,286.96
2022-09-05T00:13:47.000Z,286.96
2022-09-05T00:15:13.000Z,286.9
2022-09-05T00:17:23.000Z,286.9
2022-09-05T00:20:42.000Z,286.84
2022-09-05T00:26:28.000Z,286.84
2022-09-05T00:27:55.000Z,286.77
2022-09-05T00:30:01.000Z,286.77
2022-09-05T00:33:16.000Z,286.71
2022-09-05T00:35:22.000Z,286.65
2022-09-05T00:36:50.000Z,286.65
2022-09-05T00:38:56.000Z,286.65
2022-09-05T00:40:23.000Z,286.65
2022-09-05T00:42:29.000Z,286.65
2022-09-05T00:43:56.000Z,286.65
2022-09-05T00:46:02.000Z,286.65
2022-09-05T00:47:28.000Z,286.59
2022-09-05T00:49:35.000Z,286.52
2022-09-05T00:52:25.000Z,286.46
2022-09-05T00:53:52.000Z,286.52
2022-09-05T00:55:58.000Z,286.46
2022-09-05T00:57:25.000Z,286.46
2022-09-05T00:59:31.000Z,286.4
2022-09-05T01:00:57.000Z,286.4
2022-09-05T01:03:03.000Z,286.27
2022-09-05T01:04:30.000Z,286.4
2022-09-05T01:06:36.000Z,286.4
2022-09-05T01:08:03.000Z,286.4
2022-09-05T01:10:09.000Z,286.34
2022-09-05T01:11:36.000Z,286.27
2022-09-05T01:13:42.000Z,286.27
2022-09-05T01:15:09.000Z,286.4
2022-09-05T01:17:15.000Z,286.34
2022-09-05T01:18:41.000Z,286.27
2022-09-05T01:20:47.000Z,286.15
2022-09-05T01:22:14.000Z,286.15
2022-09-05T01:24:20.000Z,286.09
2022-09-05T01:25:52.000Z,286.09
2022-09-05T01:27:59.000Z,286.09
2022-09-05T01:32:06.000Z,286.09
2022-09-05T01:33:33.000Z,286.15
2022-09-05T01:35:39.000Z,286.15
2022-09-05T01:37:17.000Z,286.15
2022-09-05T01:39:37.000Z,286.02
2022-09-05T01:41:38.000Z,285.96
2022-09-05T01:43:44.000Z,285.9
2022-09-05T01:45:10.000Z,285.84
2022-09-05T01:47:17.000Z,285.84
2022-09-05T01:48:55.000Z,285.77
2022-09-05T01:51:02.000Z,285.77
2022-09-05T01:52:53.000Z,285.77
2022-09-05T01:55:03.000Z,285.77
2022-09-05T01:56:30.000Z,285.77
2022-09-05T01:58:36.000Z,285.77
2022-09-05T02:00:03.000Z,285.71
2022-09-05T02:02:09.000Z,285.65
2022-09-05T02:03:36.000Z,285.65
2022-09-05T02:05:42.000Z,285.65
2022-09-05T02:07:13.000Z,285.59
2022-09-05T02:09:35.000Z,285.52
2022-09-05T02:12:26.000Z,285.52
2022-09-05T02:13:53.000Z,285.52
2022-09-05T02:15:59.000Z,285.59
2022-09-05T02:17:26.000Z,285.59
2022-09-05T02:19:55.000Z,285.52
2022-09-05T02:21:22.000Z,285.52
2022-09-05T02:23:28.000Z,285.46
2022-09-05T02:25:06.000Z,285.52
2022-09-05T02:28:07.000Z,285.46
2022-09-05T02:29:33.000Z,285.46
2022-09-05T02:31:39.000Z,285.4
2022-09-05T02:33:06.000Z,285.4
2022-09-05T02:35:12.000Z,285.34
2022-09-05T02:36:39.000Z,285.34
2022-09-05T02:38:45.000Z,285.34
2022-09-05T02:46:48.000Z,285.21
2022-09-05T02:48:55.000Z,285.15
2022-09-05T02:50:21.000Z,285.15
2022-09-05T02:59:35.000Z,284.84
2022-09-05T03:01:02.000Z,284.84
2022-09-05T03:03:08.000Z,284.84
2022-09-05T03:06:00.000Z,284.9
2022-09-05T03:07:26.000Z,284.9
2022-09-05T03:09:32.000Z,284.9
2022-09-05T03:10:59.000Z,284.96
2022-09-05T03:13:05.000Z,284.96
2022-09-05T03:14:31.000Z,284.96
2022-09-05T03:16:37.000Z,284.84
2022-09-05T03:18:12.000Z,284.84
2022-09-05T03:20:25.000Z,284.71
2022-09-05T03:21:52.000Z,284.71
2022-09-05T03:23:58.000Z,284.65
2022-09-05T03:25:24.000Z,284.65
2022-09-05T03:27:31.000Z,284.71
2022-09-05T03:28:57.000Z,284.71
2022-09-05T03:31:03.000Z,284.65
2022-09-05T03:32:30.000Z,284.65
2022-09-05T03:34:38.000Z,284.65
2022-09-05T03:36:04.000Z,284.59
2022-09-05T03:38:11.000Z,284.52
2022-09-05T03:39:37.000Z,284.52
2022-09-05T03:41:43.000Z,284.46
2022-09-05T03:44:34.000Z,284.46
2022-09-05T03:46:01.000Z,284.46
2022-09-05T03:48:07.000Z,284.4
2022-09-05T03:49:53.000Z,284.4
2022-09-05T03:59:25.000Z,284.27
2022-09-05T04:00:53.000Z,284.27
2022-09-05T04:03:55.000Z,284.21
2022-09-05T04:09:53.000Z,284.21
2022-09-05T04:12:00.000Z,284.21
2022-09-05T04:13:27.000Z,284.21
2022-09-05T04:15:34.000Z,284.09
2022-09-05T04:17:00.000Z,284.09
2022-09-05T04:19:06.000Z,284.15
2022-09-05T04:20:33.000Z,284.09
2022-09-05T04:22:44.000Z,284.09
2022-09-05T04:24:11.000Z,284.02
2022-09-05T04:26:17.000Z,284.02
2022-09-05T04:27:43.000Z,284.02
2022-09-05T04:29:49.000Z,283.96
2022-09-05T04:31:16.000Z,283.96
2022-09-05T04:33:22.000Z,284.02
2022-09-05T04:36:26.000Z,283.96
2022-09-05T04:37:52.000Z,283.96
2022-09-05T04:39:58.000Z,283.96
2022-09-05T04:41:25.000Z,283.96
2022-09-05T04:43:43.000Z,283.84
2022-09-05T04:45:10.000Z,283.9
2022-09-05T04:47:21.000Z,283.9
2022-09-05T04:48:49.000Z,283.9
2022-09-05T04:50:57.000Z,283.9
2022-09-05T04:52:24.000Z,283.84
2022-09-05T04:54:35.000Z,283.84
2022-09-05T04:56:02.000Z,283.84
2022-09-05T04:58:08.000Z,283.84
2022-09-05T04:59:34.000Z,283.84
2022-09-05T05:08:11.000Z,283.9
2022-09-05T05:09:37.000Z,283.96
2022-09-05T05:11:44.000Z,283.96
2022-09-05T05:19:41.000Z,284.09
2022-09-05T05:21:51.000Z,284.02
2022-09-05T05:23:17.000Z,284.09
2022-09-05T05:25:23.000Z,284.15
2022-09-05T05:28:15.000Z,284.21
2022-09-05T05:29:49.000Z,284.21
2022-09-05T05:31:55.000Z,284.27
2022-09-05T05:33:22.000Z,284.34
2022-09-05T05:35:28.000Z,284.4
2022-09-05T05:36:55.000Z,284.4
2022-09-05T05:39:04.000Z,284.46
2022-09-05T05:40:31.000Z,284.46
2022-09-05T05:42:55.000Z,284.52
2022-09-05T05:44:21.000Z,284.59
2022-09-05T05:46:27.000Z,284.59
2022-09-05T05:47:54.000Z,284.65
2022-09-05T05:50:00.000Z,284.65
2022-09-05T05:51:27.000Z,284.71
2022-09-05T05:54:05.000Z,284.77
2022-09-05T05:55:32.000Z,284.84
2022-09-05T05:57:57.000Z,284.96
2022-09-05T05:59:23.000Z,285.02
2022-09-05T06:01:29.000Z,285.02
2022-09-05T06:03:03.000Z,285.09
2022-09-05T06:05:31.000Z,285.27
2022-09-05T06:08:22.000Z,285.27
2022-09-05T06:16:18.000Z,285.65
2022-09-05T06:18:24.000Z,285.65
2022-09-05T06:19:51.000Z,285.71
2022-09-05T06:24:15.000Z,285.84
2022-09-05T06:25:45.000Z,285.9
2022-09-05T06:27:52.000Z,285.9
2022-09-05T06:29:43.000Z,286.09
2022-09-05T06:31:51.000Z,286.21
2022-09-05T06:33:17.000Z,286.34
2022-09-05T06:35:24.000Z,286.46
2022-09-05T06:36:50.000Z,286.52
2022-09-05T06:38:56.000Z,286.59
2022-09-05T06:40:23.000Z,286.71
2022-09-05T06:42:35.000Z,286.84
2022-09-05T06:44:08.000Z,286.9
2022-09-05T06:46:14.000Z,286.96
2022-09-05T06:48:46.000Z,287.02
2022-09-05T06:51:35.000Z,287.15
2022-09-05T06:53:08.000Z,287.15
2022-09-05T06:55:25.000Z,287.15
2022-09-05T06:58:16.000Z,287.21
2022-09-05T06:59:42.000Z,287.21
2022-09-05T07:01:49.000Z,287.15
2022-09-05T07:03:25.000Z,287.21
2022-09-05T07:05:31.000Z,287.27
2022-09-05T07:07:10.000Z,287.34
2022-09-05T07:09:21.000Z,287.4
2022-09-05T07:10:53.000Z,287.4
2022-09-05T07:13:06.000Z,287.46
2022-09-05T07:14:33.000Z,287.59
2022-09-05T07:16:39.000Z,287.71
2022-09-05T07:18:06.000Z,287.77
2022-09-05T07:20:15.000Z,287.84
2022-09-05T07:21:46.000Z,287.96
2022-09-05T07:23:54.000Z,288.02
2022-09-05T07:25:34.000Z,288.09
2022-09-05T07:27:41.000Z,288.21
2022-09-05T07:29:52.000Z,288.4
2022-09-05T07:32:06.000Z,288.46
2022-09-05T07:33:32.000Z,288.59
2022-09-05T07:35:38.000Z,288.71
2022-09-05T07:38:31.000Z,288.96
2022-09-05T07:40:23.000Z,289.09
2022-09-05T07:42:31.000Z,289.15
2022-09-05T07:43:57.000Z,289.27
2022-09-05T07:46:03.000Z,289.52
2022-09-05T07:47:30.000Z,289.65
2022-09-05T07:49:36.000Z,289.71
2022-09-05T07:53:11.000Z,290.02
2022-09-05T07:59:15.000Z,290.34
2022-09-05T08:00:41.000Z,290.34
2022-09-05T08:02:48.000Z,290.52
2022-09-05T08:04:19.000Z,290.65
2022-09-05T08:06:25.000Z,290.65
2022-09-05T08:09:12.000Z,290.77
2022-09-05T08:12:12.000Z,291.15
2022-09-05T08:13:41.000Z,291.21
2022-09-05T08:15:51.000Z,291.27
2022-09-05T08:17:36.000Z,291.4
2022-09-05T08:19:42.000Z,291.4
2022-09-05T08:21:09.000Z,291.4
2022-09-05T08:23:15.000Z,291.59
2022-09-05T08:26:06.000Z,291.71
2022-09-05T08:27:32.000Z,291.71
2022-09-05T08:29:38.000Z,291.9
2022-09-05T08:31:05.000Z,291.96
2022-09-05T08:33:11.000Z,292.02
2022-09-05T08:34:38.000Z,292.09
2022-09-05T08:36:49.000Z,292.27
2022-09-05T08:38:15.000Z,292.34
2022-09-05T08:40:22.000Z,292.46
2022-09-05T08:41:48.000Z,292.52
2022-09-05T08:44:05.000Z,292.71
2022-09-05T08:48:12.000Z,293.02
2022-09-05T08:50:18.000Z,293.15
2022-09-05T08:51:51.000Z,293.27
2022-09-05T08:53:59.000Z,293.4
2022-09-05T08:55:26.000Z,293.52
2022-09-05T08:57:32.000Z,293.59
2022-09-05T08:59:03.000Z,293.65
2022-09-05T09:01:37.000Z,294.09
2022-09-05T09:04:12.000Z,294.09
2022-09-05T09:06:18.000Z,294.15
2022-09-05T09:09:10.000Z,294.4
2022-09-05T09:10:37.000Z,294.4
2022-09-05T09:12:43.000Z,294.59
2022-09-05T09:14:13.000Z,294.65
2022-09-05T09:16:35.000Z,294.77
2022-09-05T09:18:01.000Z,294.84
2022-09-05T09:20:14.000Z,294.96
2022-09-05T09:21:40.000Z,295.09
2022-09-05T09:23:46.000Z,295.34
2022-09-05T09:25:13.000Z,295.4
2022-09-05T09:27:22.000Z,295.46
2022-09-05T09:30:05.000Z,295.59
2022-09-05T09:32:11.000Z,295.71
2022-09-05T09:33:38.000Z,295.77
2022-09-05T09:35:44.000Z,295.96
2022-09-05T09:37:10.000Z,296.09
2022-09-05T09:39:17.000Z,296.27
2022-09-05T09:41:03.000Z,296.09
2022-09-05T09:43:09.000Z,296.15
2022-09-05T09:44:36.000Z,296.09
2022-09-05T09:46:42.000Z,296.21
2022-09-05T09:49:33.000Z,296.4
2022-09-05T09:51:00.000Z,296.52
2022-09-05T09:53:06.000Z,296.77
2022-09-05T09:54:32.000Z,296.84
2022-09-05T09:56:39.000Z,296.9
2022-09-05T09:58:06.000Z,296.77
2022-09-05T10:00:12.000Z,296.96
2022-09-05T10:01:38.000Z,297.15
2022-09-05T10:03:45.000Z,297.15
2022-09-05T10:12:08.000Z,297.21
2022-09-05T10:14:14.000Z,297.09
2022-09-05T10:16:14.000Z,297.09
2022-09-05T10:18:22.000Z,297.21
2022-09-05T10:19:49.000Z,297.15
2022-09-05T10:22:14.000Z,297.09
2022-09-05T10:24:02.000Z,297.02
2022-09-05T10:26:08.000Z,296.96
2022-09-05T10:27:35.000Z,297.02
2022-09-05T10:29:43.000Z,296.96
2022-09-05T10:31:09.000Z,296.96
2022-09-05T10:37:16.000Z,297.09
2022-09-05T10:40:07.000Z,297.09
2022-09-05T10:41:34.000Z,297.15
2022-09-05T10:43:40.000Z,297.15
2022-09-05T10:45:07.000Z,297.02
2022-09-05T10:47:13.000Z,296.96
2022-09-05T10:48:40.000Z,296.96
2022-09-05T10:50:46.000Z,296.96
2022-09-05T10:52:12.000Z,297.09
2022-09-05T10:54:23.000Z,297.09
2022-09-05T10:55:50.000Z,297.09
2022-09-05T10:57:56.000Z,297.09
2022-09-05T10:59:23.000Z,297.09
2022-09-05T11:04:29.000Z,297.15
2022-09-05T11:06:01.000Z,297.21
2022-09-05T11:08:13.000Z,297.46
2022-09-05T11:09:40.000Z,297.71
2022-09-05T11:11:46.000Z,298.02
2022-09-05T11:13:13.000Z,298.02
2022-09-05T11:15:19.000Z,297.9
2022-09-05T11:16:46.000Z,297.96
2022-09-05T11:18:52.000Z,297.96
2022-09-05T11:21:46.000Z,297.96
2022-09-05T11:23:14.000Z,298.02
2022-09-05T11:25:20.000Z,298.02
2022-09-05T11:27:04.000Z,298.21
2022-09-05T11:29:29.000Z,298.15
2022-09-05T11:30:55.000Z,298.21
2022-09-05T11:33:02.000Z,298.4
2022-09-05T11:41:25.000Z,298.46
2022-09-05T11:43:34.000Z,298.52
2022-09-05T11:45:00.000Z,298.46
2022-09-05T11:47:07.000Z,298.46
2022-09-05T11:48:52.000Z,298.46
2022-09-05T11:50:59.000Z,298.71
2022-09-05T11:52:25.000Z,298.84
2022-09-05T11:54:31.000Z,299.15
2022-09-05T11:55:58.000Z,299.34
2022-09-05T11:58:04.000Z,299.46
2022-09-05T12:37:38.000Z,301.02
2022-09-05T12:43:04.000Z,301.02
2022-09-05T12:46:47.000Z,301.21
2022-09-05T12:48:13.000Z,301.46
2022-09-05T12:50:22.000Z,301.52
2022-09-05T12:51:48.000Z,301.52
2022-09-05T12:53:55.000Z,301.59
2022-09-05T12:55:21.000Z,301.59
2022-09-05T12:57:27.000Z,301.65
2022-09-05T13:04:34.000Z,301.96
2022-09-05T13:07:03.000Z,302.21
2022-09-05T13:08:30.000Z,302.21
2022-09-05T13:10:36.000Z,302.21
2022-09-05T13:16:30.000Z,302.21
2022-09-05T13:18:36.000Z,301.9
2022-09-05T13:20:03.000Z,301.84
2022-09-05T13:22:10.000Z,302.15
2022-09-05T13:23:36.000Z,302.46
2022-09-05T13:25:43.000Z,302.65
2022-09-05T13:27:09.000Z,302.77
2022-09-05T13:29:15.000Z,302.71
2022-09-05T13:32:07.000Z,302.46
2022-09-05T13:39:33.000Z,302.27
2022-09-05T13:41:39.000Z,302.46
2022-09-05T13:43:06.000Z,302.52
2022-09-05T13:45:12.000Z,302.71
2022-09-05T13:46:38.000Z,302.52
2022-09-05T13:50:41.000Z,302.02
2022-09-05T13:52:47.000Z,302.21
2022-09-05T13:54:14.000Z,302.21
2022-09-05T13:56:20.000Z,302.09
2022-09-05T13:57:47.000Z,302.02
2022-09-05T13:59:53.000Z,301.77
2022-09-05T14:01:19.000Z,301.59
2022-09-05T14:03:26.000Z,301.65
2022-09-05T14:05:04.000Z,301.52
2022-09-05T14:07:18.000Z,301.46
2022-09-05T14:09:10.000Z,301.34
2022-09-05T14:11:42.000Z,301.09
2022-09-05T14:13:09.000Z,300.96
2022-09-05T14:15:15.000Z,300.96
2022-09-05T14:18:07.000Z,301.59
2022-09-05T14:19:46.000Z,301.9
2022-09-05T14:21:52.000Z,301.71
2022-09-05T14:23:18.000Z,301.71
2022-09-05T14:25:25.000Z,301.59
2022-09-05T14:26:51.000Z,301.65
2022-09-05T14:28:57.000Z,301.52
2022-09-05T14:30:24.000Z,301.46
2022-09-05T14:40:01.000Z,301.02
2022-09-05T14:41:55.000Z,301.02
2022-09-05T14:44:13.000Z,300.96
2022-09-05T14:45:40.000Z,300.96
2022-09-05T14:47:46.000Z,300.96
2022-09-05T14:49:13.000Z,300.96
2022-09-05T14:51:22.000Z,300.77
2022-09-05T14:56:00.000Z,300.84
2022-09-05T15:04:04.000Z,301.27
2022-09-05T15:06:39.000Z,301.09
2022-09-05T15:08:06.000Z,301.02
2022-09-05T15:13:30.000Z,300.9
2022-09-05T15:16:21.000Z,300.96
2022-09-05T15:17:47.000Z,300.96
2022-09-05T15:19:54.000Z,300.84
2022-09-05T15:21:31.000Z,300.71
2022-09-05T15:23:39.000Z,300.59
2022-09-05T15:25:10.000Z,300.65
2022-09-05T15:27:21.000Z,300.71
2022-09-05T15:28:48.000Z,300.71
2022-09-05T15:31:17.000Z,300.65
2022-09-05T15:32:44.000Z,300.71
2022-09-05T15:34:54.000Z,301.02
2022-09-05T15:36:21.000Z,301.09
2022-09-05T15:38:27.000Z,301.27
2022-09-05T15:39:54.000Z,301.46
2022-09-05T15:42:00.000Z,301.46
2022-09-05T15:43:26.000Z,301.46
2022-09-05T15:45:32.000Z,301.27
2022-09-05T15:46:59.000Z,301.34
2022-09-05T15:49:05.000Z,301.27
2022-09-05T15:50:32.000Z,301.21
2022-09-05T15:52:38.000Z,300.96
2022-09-05T15:55:29.000Z,300.71
2022-09-05T15:56:56.000Z,300.71
2022-09-05T15:59:02.000Z,300.65
2022-09-05T16:00:28.000Z,300.65
2022-09-05T16:02:35.000Z,300.65
2022-09-05T16:04:01.000Z,300.59
2022-09-05T16:12:36.000Z,299.96
2022-09-05T16:14:02.000Z,299.77
2022-09-05T16:16:08.000Z,299.65
2022-09-05T16:24:47.000Z,298.96
2022-09-05T16:27:04.000Z,298.96
2022-09-05T16:28:30.000Z,298.96
2022-09-05T16:30:37.000Z,298.9
2022-09-05T16:32:03.000Z,298.9
2022-09-05T16:34:09.000Z,298.77
2022-09-05T16:35:36.000Z,298.65
2022-09-05T16:37:42.000Z,298.4
2022-09-05T16:39:09.000Z,298.46
2022-09-05T16:41:15.000Z,298.4
2022-09-05T16:42:48.000Z,298.27
2022-09-05T16:44:54.000Z,298.21
2022-09-05T16:47:46.000Z,298.27
2022-09-05T16:49:12.000Z,298.27
2022-09-05T16:51:19.000Z,298.09
2022-09-05T16:53:00.000Z,297.96
2022-09-05T16:55:25.000Z,298.02
2022-09-05T16:56:53.000Z,297.96
2022-09-05T16:59:00.000Z,297.71
2022-09-05T17:00:26.000Z,297.65
2022-09-05T17:02:32.000Z,297.59
2022-09-05T17:03:59.000Z,297.59
2022-09-05T17:06:05.000Z,297.52
2022-09-05T17:07:31.000Z,297.46
2022-09-05T17:09:40.000Z,297.4
2022-09-05T17:11:06.000Z,297.4
2022-09-05T17:13:28.000Z,297.27
2022-09-05T17:14:55.000Z,297.4
2022-09-05T17:17:01.000Z,297.34
2022-09-05T17:19:43.000Z,297.15
2022-09-05T17:22:11.000Z,296.84
2022-09-05T17:31:02.000Z,296.77
2022-09-05T17:33:58.000Z,296.65
2022-09-05T17:36:49.000Z,296.77
2022-09-05T17:38:15.000Z,296.77
2022-09-05T17:40:22.000Z,296.59
2022-09-05T17:41:48.000Z,296.71
2022-09-05T17:43:55.000Z,296.46
2022-09-05T17:45:21.000Z,296.4
2022-09-05T17:47:28.000Z,296.27
2022-09-05T17:49:01.000Z,296.21
2022-09-05T17:51:24.000Z,296.09
2022-09-05T17:52:50.000Z,296.02
2022-09-05T17:54:57.000Z,295.96
2022-09-05T17:56:23.000Z,295.84
2022-09-05T17:58:29.000Z,295.71
2022-09-05T18:00:14.000Z,295.65
2022-09-05T18:02:21.000Z,295.52
2022-09-05T18:03:47.000Z,295.46
2022-09-05T18:05:53.000Z,295.34
2022-09-05T18:07:20.000Z,295.27
2022-09-05T18:09:27.000Z,295.21
2022-09-05T18:10:54.000Z,295.15
2022-09-05T18:13:02.000Z,295.09
2022-09-05T18:16:22.000Z,295.02
2022-09-05T18:17:49.000Z,294.9
2022-09-05T18:19:55.000Z,294.77
2022-09-05T18:21:22.000Z,294.71
2022-09-05T18:23:28.000Z,294.59
2022-09-05T18:31:58.000Z,294.27
2022-09-05T18:34:04.000Z,294.15
2022-09-05T18:35:31.000Z,294.15
2022-09-05T18:37:42.000Z,294.09
2022-09-05T18:39:11.000Z,294.02
2022-09-05T18:41:19.000Z,293.9
2022-09-05T18:42:46.000Z,293.84
2022-09-05T18:44:52.000Z,293.65
2022-09-05T18:46:23.000Z,293.59
2022-09-05T18:48:31.000Z,293.52
2022-09-05T18:49:58.000Z,293.46
2022-09-05T18:52:31.000Z,293.4
2022-09-05T18:53:58.000Z,293.4
2022-09-05T18:56:04.000Z,293.4
2022-09-05T18:57:45.000Z,293.34
2022-09-05T18:59:51.000Z,293.34
2022-09-05T19:02:42.000Z,293.15
2022-09-05T19:04:23.000Z,293.09
2022-09-05T19:06:45.000Z,293.02
2022-09-05T19:08:12.000Z,292.96
2022-09-05T19:10:34.000Z,292.84
2022-09-05T19:12:01.000Z,292.77
2022-09-05T19:14:39.000Z,292.71
2022-09-05T19:16:07.000Z,292.65
2022-09-05T19:18:48.000Z,292.52
2022-09-05T19:20:14.000Z,292.46
2022-09-05T19:22:37.000Z,292.27
2022-09-05T19:24:36.000Z,292.21
2022-09-05T19:26:50.000Z,292.15
2022-09-05T19:31:55.000Z,291.84
2022-09-05T19:39:24.000Z,291.59
2022-09-05T19:49:10.000Z,291.27
2022-09-05T19:51:16.000Z,291.34
2022-09-05T19:52:46.000Z,291.34
2022-09-05T19:54:52.000Z,291.52
2022-09-05T19:56:19.000Z,291.52
2022-09-05T19:58:25.000Z,291.34
2022-09-05T20:01:17.000Z,291.4
2022-09-05T20:02:43.000Z,291.46
2022-09-05T20:04:55.000Z,291.34
2022-09-05T20:06:21.000Z,291.34
2022-09-05T20:08:34.000Z,291.21
2022-09-05T20:10:01.000Z,291.27
2022-09-05T20:12:07.000Z,291.21
2022-09-05T20:13:34.000Z,291.21
2022-09-05T20:15:40.000Z,291.21
2022-09-05T20:17:06.000Z,291.09
2022-09-05T20:19:12.000Z,291.09
2022-09-05T20:20:39.000Z,291.15
2022-09-05T20:22:55.000Z,290.96
2022-09-05T20:24:21.000Z,290.84
2022-09-05T20:26:27.000Z,290.71
2022-09-05T20:27:54.000Z,290.65
2022-09-05T20:30:01.000Z,290.59
2022-09-05T20:31:28.000Z,290.71
2022-09-05T20:33:34.000Z,290.77
2022-09-05T20:35:01.000Z,290.77
2022-09-05T20:45:18.000Z,290.21
2022-09-05T20:48:09.000Z,290.09
2022-09-05T20:55:48.000Z,289.9
2022-09-05T20:57:54.000Z,289.96
2022-09-05T20:59:21.000Z,289.96
2022-09-05T21:01:35.000Z,289.9
2022-09-05T21:03:02.000Z,289.9
2022-09-05T21:05:13.000Z,289.84
2022-09-05T21:06:45.000Z,289.84
2022-09-05T21:08:51.000Z,289.9
2022-09-05T21:10:18.000Z,289.84
2022-09-05T21:12:24.000Z,289.9
2022-09-05T21:13:52.000Z,289.84
2022-09-05T21:15:58.000Z,289.84
2022-09-05T21:17:25.000Z,289.96
2022-09-05T21:19:31.000Z,289.84
2022-09-05T21:20:58.000Z,289.9
2022-09-05T21:23:04.000Z,289.65
2022-09-05T21:24:30.000Z,289.71
2022-09-05T21:26:36.000Z,289.46
2022-09-05T21:28:03.000Z,289.52
2022-09-05T21:30:09.000Z,289.59
2022-09-05T21:33:00.000Z,289.27
2022-09-05T21:34:28.000Z,289.34
2022-09-05T21:36:35.000Z,289.21
2022-09-05T21:38:01.000Z,289.21
2022-09-05T21:40:07.000Z,289.09
2022-09-05T21:41:34.000Z,289.02
2022-09-05T21:43:43.000Z,289.02
2022-09-05T21:49:14.000Z,288.9
2022-09-05T21:51:21.000Z,288.84
2022-09-05T21:52:47.000Z,288.77
2022-09-05T21:57:55.000Z,289.09
2022-09-05T22:00:59.000Z,288.9
2022-09-05T22:03:05.000Z,288.96
2022-09-05T22:04:43.000Z,288.96
2022-09-05T22:06:49.000Z,288.96
2022-09-05T22:08:15.000Z,288.9
2022-09-05T22:10:21.000Z,288.9
2022-09-05T22:12:13.000Z,288.9
2022-09-05T22:14:35.000Z,288.84
2022-09-05T22:16:01.000Z,288.9
2022-09-05T22:18:07.000Z,288.9
2022-09-05T22:22:40.000Z,288.65
2022-09-05T22:24:49.000Z,288.59
2022-09-05T22:26:55.000Z,288.52
2022-09-05T22:29:07.000Z,288.46
2022-09-05T22:30:33.000Z,288.34
2022-09-05T22:32:39.000Z,288.21
2022-09-05T22:34:06.000Z,288.15
2022-09-05T22:36:12.000Z,288.15
2022-09-05T22:37:38.000Z,288.15
2022-09-05T22:39:45.000Z,288.09
2022-09-05T22:41:11.000Z,288.02
2022-09-05T22:43:18.000Z,287.96
2022-09-05T22:44:49.000Z,288.02
2022-09-05T22:46:55.000Z,287.96
2022-09-05T22:48:22.000Z,288.09
2022-09-05T22:50:28.000Z,288.09
2022-09-05T22:51:54.000Z,288.15
2022-09-05T22:54:00.000Z,288.02
2022-09-05T22:55:27.000Z,288.02
2022-09-05T22:57:33.000Z,288.02
2022-09-05T22:58:59.000Z,287.96
2022-09-05T23:01:06.000Z,287.96
2022-09-05T23:02:32.000Z,288.09
2022-09-05T23:04:38.000Z,288.15
2022-09-05T23:07:30.000Z,288.21
2022-09-05T23:08:56.000Z,288.21
2022-09-05T23:11:02.000Z,288.27
2022-09-05T23:12:29.000Z,288.21
2022-09-05T23:14:35.000Z,288.15
2022-09-05T23:16:01.000Z,288.21
2022-09-05T23:18:08.000Z,288.09
2022-09-05T23:19:34.000Z,287.96
2022-09-05T23:21:40.000Z,287.9
2022-09-05T23:23:07.000Z,287.9
2022-09-05T23:25:13.000Z,287.77
2022-09-05T23:26:39.000Z,287.71
2022-09-05T23:28:46.000Z,287.77
2022-09-05T23:30:12.000Z,287.84
2022-09-05T23:32:18.000Z,287.84
2022-09-05T23:33:45.000Z,287.84
2022-09-05T23:35:51.000Z,287.77
2022-09-05T23:37:17.000Z,287.71
2022-09-05T23:39:23.000Z,287.65
2022-09-05T23:40:50.000Z,287.65
2022-09-05T23:42:56.000Z,287.59
2022-09-05T23:45:47.000Z,287.52
2022-09-05T23:47:14.000Z,287.46
2022-09-05T23:49:20.000Z,287.52
2022-09-05T23:50:46.000Z,287.59
2022-09-05T23:52:52.000Z,287.59
2022-09-05T23:54:19.000Z,287.59
2022-09-05T23:56:25.000Z,287.52
2022-09-05T23:57:51.000Z,287.46
2022-09-05T23:59:58.000Z,287.52
